createdAt,value
2018-02-27T00:04:20.782Z,-12.90
2018-02-27T00:09:04.137Z,-12.90
2018-02-27T00:13:47.868Z,-12.90
2018-02-27T00:18:32.152Z,-13.00
2018-02-27T00:23:15.849Z,-13.00
2018-02-27T00:27:59.405Z,-13.00
2018-02-27T00:32:43.167Z,-13.00
2018-02-27T00:37:27.546Z,-13.10
2018-02-27T00:42:12.280Z,-13.20
2018-02-27T00:46:55.877Z,-13.20
2018-02-27T00:51:39.542Z,-13.20
2018-02-27T00:56:24.129Z,-13.20
2018-02-27T01:01:07.746Z,-13.10
2018-02-27T01:05:51.167Z,-13.10
2018-02-27T01:10:34.569Z,-13.10
2018-02-27T01:15:18.060Z,-13.00
2018-02-27T01:20:01.594Z,-13.10
2018-02-27T01:24:46.072Z,-13.20
2018-02-27T01:29:31.558Z,-13.20
2018-02-27T01:34:15.219Z,-13.30
2018-02-27T01:38:59.029Z,-13.40
2018-02-27T01:43:43.033Z,-13.50
2018-02-27T01:48:26.897Z,-13.60
2018-02-27T01:53:10.547Z,-13.70
2018-02-27T01:57:54.624Z,-13.80
2018-02-27T02:02:39.902Z,-13.70
2018-02-27T02:07:23.562Z,-13.70
2018-02-27T02:12:08.216Z,-13.60
2018-02-27T02:16:51.877Z,-13.70
2018-02-27T02:27:14.796Z,-13.70
2018-02-27T02:31:58.377Z,-13.70
2018-02-27T02:36:41.839Z,-13.70
2018-02-27T02:46:38.138Z,-13.70
2018-02-27T02:51:21.495Z,-13.80
2018-02-27T02:56:05.150Z,-13.80
2018-02-27T03:00:48.625Z,-13.90
2018-02-27T03:05:32.156Z,-13.90
2018-02-27T03:15:27.292Z,-14.00
2018-02-27T03:20:10.955Z,-14.00
2018-02-27T03:24:55.065Z,-14.30
2018-02-27T03:29:38.445Z,-14.20
2018-02-27T03:39:36.048Z,-14.30
2018-02-27T03:44:19.480Z,-14.30
2018-02-27T03:49:18.369Z,-14.30
2018-02-27T03:54:01.779Z,-14.30
2018-02-27T03:58:47.364Z,-14.50
2018-02-27T04:03:31.531Z,-14.50
2018-02-27T04:08:15.361Z,-14.50
2018-02-27T04:12:58.757Z,-14.30
2018-02-27T04:17:42.916Z,-14.20
2018-02-27T04:22:26.395Z,-14.30
2018-02-27T04:27:09.743Z,-14.40
2018-02-27T04:31:53.451Z,-14.40
2018-02-27T04:36:36.976Z,-14.30
2018-02-27T04:41:20.580Z,-14.40
2018-02-27T04:46:04.240Z,-14.40
2018-02-27T04:50:47.973Z,-14.40
2018-02-27T04:55:32.075Z,-14.50
2018-02-27T05:00:15.423Z,-14.50
2018-02-27T05:04:59.311Z,-14.60
2018-02-27T05:09:43.734Z,-14.60
2018-02-27T05:14:27.151Z,-14.60
2018-02-27T05:24:35.951Z,-14.60
2018-02-27T05:29:20.100Z,-14.50
2018-02-27T05:34:03.410Z,-14.60
2018-02-27T05:38:46.852Z,-14.60
2018-02-27T05:43:30.236Z,-14.60
2018-02-27T05:48:14.497Z,-14.60
2018-02-27T05:52:58.696Z,-14.60
2018-02-27T05:57:42.006Z,-14.60
2018-02-27T06:02:26.137Z,-14.60
2018-02-27T06:07:09.470Z,-14.60
2018-02-27T06:11:52.893Z,-14.60
2018-02-27T06:16:36.290Z,-14.60
2018-02-27T06:21:20.408Z,-14.60
2018-02-27T06:26:03.832Z,-14.60
2018-02-27T06:30:47.222Z,-14.60
2018-02-27T06:35:30.589Z,-14.60
2018-02-27T06:40:13.938Z,-14.50
2018-02-27T06:44:57.231Z,-14.30
2018-02-27T06:49:41.456Z,-14.10
2018-02-27T06:54:24.907Z,-14.10
2018-02-27T06:59:08.448Z,-13.90
2018-02-27T07:03:51.809Z,-13.70
2018-02-27T07:08:35.143Z,-13.60
2018-02-27T07:13:18.575Z,-13.50
2018-02-27T07:18:01.937Z,-13.40
2018-02-27T07:22:45.343Z,-13.40
2018-02-27T07:27:28.747Z,-13.20
2018-02-27T07:32:12.923Z,-12.80
2018-02-27T07:36:56.394Z,-12.90
2018-02-27T07:41:39.763Z,-12.70
2018-02-27T07:46:24.039Z,-12.30
2018-02-27T07:51:07.462Z,-12.30
2018-02-27T07:55:50.833Z,-12.10
2018-02-27T08:00:34.294Z,-11.80
2018-02-27T08:05:18.584Z,-11.40
2018-02-27T08:10:01.970Z,-11.20
2018-02-27T08:14:45.352Z,-11.10
2018-02-27T08:19:28.719Z,-11.00
2018-02-27T08:24:13.727Z,-10.80
2018-02-27T08:29:20.427Z,-10.30
2018-02-27T08:34:04.047Z,-10.30
2018-02-27T08:38:47.424Z,-10.30
2018-02-27T08:43:30.763Z,-10.10
2018-02-27T08:48:14.109Z,-9.60
2018-02-27T08:52:57.436Z,-9.30
2018-02-27T08:57:40.804Z,-9.10
2018-02-27T09:02:24.139Z,-9.10
2018-02-27T09:07:07.480Z,-9.20
2018-02-27T09:11:50.854Z,-9.20
2018-02-27T09:16:34.220Z,-8.80
2018-02-27T09:21:17.810Z,-8.50
2018-02-27T09:26:01.151Z,-8.30
2018-02-27T09:30:44.503Z,-8.20
2018-02-27T09:35:27.844Z,-8.10
2018-02-27T09:40:11.213Z,-7.90
2018-02-27T09:44:54.562Z,-7.70
2018-02-27T09:49:37.885Z,-7.20
2018-02-27T09:54:21.262Z,-6.80
2018-02-27T09:59:14.963Z,-6.50
2018-02-27T10:04:25.946Z,-6.50
2018-02-27T10:09:11.463Z,-6.60
2018-02-27T10:13:58.452Z,-6.70
2018-02-27T10:18:41.826Z,-6.50
2018-02-27T10:23:25.199Z,-6.20
2018-02-27T10:28:08.539Z,-6.30
2018-02-27T10:32:51.871Z,-5.90
2018-02-27T10:37:35.219Z,-6.00
2018-02-27T10:42:18.618Z,-6.00
2018-02-27T10:47:01.934Z,-5.90
2018-02-27T10:51:46.041Z,-5.90
2018-02-27T10:56:29.412Z,-5.90
2018-02-27T11:01:25.230Z,-6.00
2018-02-27T11:06:08.645Z,-6.00
2018-02-27T11:10:51.977Z,-6.00
2018-02-27T11:15:35.382Z,-5.60
2018-02-27T11:20:18.753Z,-5.20
2018-02-27T11:25:02.065Z,-5.20
2018-02-27T11:29:46.205Z,-5.20
2018-02-27T11:34:29.700Z,-5.20
2018-02-27T11:39:13.032Z,-5.20
2018-02-27T11:43:56.392Z,-4.90
2018-02-27T11:48:39.748Z,-4.60
2018-02-27T11:53:23.103Z,-4.70
2018-02-27T11:58:06.616Z,-4.90
2018-02-27T12:02:49.999Z,-4.80
2018-02-27T12:07:33.383Z,-4.80
2018-02-27T12:12:16.755Z,-4.70
2018-02-27T12:17:00.141Z,-4.60
2018-02-27T12:21:44.264Z,-4.10
2018-02-27T12:26:27.685Z,-4.10
2018-02-27T12:31:11.078Z,-4.10
2018-02-27T12:35:54.498Z,-3.60
2018-02-27T12:40:38.647Z,-3.30
2018-02-27T12:45:22.084Z,-3.30
2018-02-27T12:50:05.564Z,-3.80
2018-02-27T12:54:49.031Z,-3.80
2018-02-27T12:59:46.775Z,-3.60
2018-02-27T13:04:33.208Z,-3.70
2018-02-27T13:09:27.062Z,-3.80
2018-02-27T13:14:10.443Z,-3.50
2018-02-27T13:18:54.567Z,-3.20
2018-02-27T13:23:37.946Z,-3.30
2018-02-27T13:28:21.306Z,-3.20
2018-02-27T13:33:04.659Z,-3.40
2018-02-27T13:37:59.139Z,-3.40
2018-02-27T13:42:46.294Z,-3.80
2018-02-27T13:47:29.624Z,-3.80
2018-02-27T13:52:13.059Z,-3.50
2018-02-27T13:56:57.141Z,-3.50
2018-02-27T14:01:40.493Z,-3.60
2018-02-27T14:06:23.883Z,-3.60
2018-02-27T14:11:07.247Z,-3.30
2018-02-27T14:15:50.573Z,-3.20
2018-02-27T14:20:34.685Z,-3.10
2018-02-27T14:25:17.991Z,-3.10
2018-02-27T14:30:01.337Z,-3.30
2018-02-27T14:34:44.648Z,-3.70
2018-02-27T14:39:27.987Z,-4.00
2018-02-27T14:44:11.391Z,-4.30
2018-02-27T14:48:54.756Z,-4.40
2018-02-27T14:53:39.063Z,-5.00
2018-02-27T14:58:22.539Z,-5.00
2018-02-27T15:03:06.927Z,-5.00
2018-02-27T15:07:51.130Z,-5.00
2018-02-27T15:12:34.783Z,-5.00
2018-02-27T15:17:18.182Z,-4.90
2018-02-27T15:22:02.382Z,-4.80
2018-02-27T15:26:45.824Z,-4.80
2018-02-27T15:31:29.174Z,-4.70
2018-02-27T15:36:12.664Z,-4.90
2018-02-27T15:40:56.972Z,-5.40
2018-02-27T15:45:44.639Z,-5.40
2018-02-27T15:50:28.016Z,-5.70
2018-02-27T15:55:11.440Z,-5.90
2018-02-27T15:59:54.812Z,-6.00
2018-02-27T16:04:38.169Z,-6.20
2018-02-27T16:09:21.556Z,-6.40
2018-02-27T16:14:04.984Z,-6.60
2018-02-27T16:18:48.374Z,-6.70
2018-02-27T16:23:31.766Z,-6.90
2018-02-27T16:28:15.171Z,-7.00
2018-02-27T16:32:58.588Z,-7.20
2018-02-27T16:37:41.961Z,-7.30
2018-02-27T16:42:25.527Z,-7.50
2018-02-27T16:47:08.983Z,-7.60
2018-02-27T16:51:52.414Z,-7.60
2018-02-27T16:56:36.636Z,-7.70
2018-02-27T17:01:19.971Z,-7.70
2018-02-27T17:06:04.117Z,-7.90
2018-02-27T17:10:48.245Z,-8.00
2018-02-27T17:15:31.933Z,-8.00
2018-02-27T17:20:16.052Z,-8.00
2018-02-27T17:25:01.821Z,-8.00
2018-02-27T17:29:45.281Z,-8.10
2018-02-27T17:34:28.650Z,-8.10
2018-02-27T17:39:12.163Z,-8.20
2018-02-27T17:43:56.059Z,-8.10
2018-02-27T17:48:42.865Z,-8.20
2018-02-27T17:53:26.596Z,-8.20
2018-02-27T17:58:10.031Z,-8.20
2018-02-27T18:02:55.348Z,-7.80
2018-02-27T18:07:38.880Z,-7.80
2018-02-27T18:12:23.108Z,-7.80
2018-02-27T18:17:17.650Z,-7.80
2018-02-27T18:22:02.367Z,-7.90
2018-02-27T18:26:46.665Z,-8.00
2018-02-27T18:31:30.088Z,-8.10
2018-02-27T18:36:13.650Z,-8.20
2018-02-27T18:40:57.162Z,-8.20
2018-02-27T18:45:40.714Z,-8.20
2018-02-27T18:50:24.240Z,-8.30
2018-02-27T18:55:08.026Z,-8.30
2018-02-27T18:59:52.560Z,-8.40
2018-02-27T19:04:36.860Z,-8.40
2018-02-27T19:09:21.393Z,-8.40
2018-02-27T19:14:04.983Z,-8.30
2018-02-27T19:18:48.415Z,-8.30
2018-02-27T19:23:31.920Z,-8.20
2018-02-27T19:28:18.898Z,-8.40
2018-02-27T19:33:03.143Z,-8.50
2018-02-27T19:37:48.687Z,-8.50
2018-02-27T19:42:33.771Z,-8.50
2018-02-27T19:47:20.377Z,-8.60
2018-02-27T19:52:07.777Z,-8.60
2018-02-27T19:56:53.501Z,-8.70
2018-02-27T20:01:43.969Z,-8.80
2018-02-27T20:06:29.378Z,-8.80
2018-02-27T20:11:12.931Z,-8.80
2018-02-27T20:15:57.196Z,-8.70
2018-02-27T20:20:51.630Z,-8.60
2018-02-27T20:25:37.516Z,-8.60
2018-02-27T20:30:21.154Z,-8.60
2018-02-27T20:35:04.569Z,-8.50
2018-02-27T20:39:48.518Z,-8.50
2018-02-27T20:44:33.497Z,-8.60
2018-02-27T20:49:17.081Z,-8.60
2018-02-27T20:54:01.440Z,-8.70
2018-02-27T20:58:45.264Z,-8.80
2018-02-27T21:03:28.902Z,-8.70
2018-02-27T21:08:12.779Z,-8.70
2018-02-27T21:12:56.998Z,-8.90
2018-02-27T21:17:40.653Z,-8.90
2018-02-27T21:22:24.349Z,-9.00
2018-02-27T21:27:08.192Z,-9.00
2018-02-27T21:31:51.640Z,-9.10
2018-02-27T21:36:36.386Z,-9.30
2018-02-27T21:41:20.152Z,-9.40
2018-02-27T21:46:04.606Z,-9.50
2018-02-27T21:50:48.290Z,-9.50
2018-02-27T21:55:32.421Z,-9.70
2018-02-27T22:00:15.862Z,-9.70
2018-02-27T22:04:59.456Z,-9.70
2018-02-27T22:09:43.015Z,-9.80
2018-02-27T22:14:26.651Z,-9.80
2018-02-27T22:19:10.123Z,-9.80
2018-02-27T22:23:53.510Z,-9.80
2018-02-27T22:28:37.098Z,-9.90
2018-02-27T22:33:20.774Z,-10.00
2018-02-27T22:38:04.188Z,-10.10
2018-02-27T22:42:47.789Z,-10.40
2018-02-27T22:47:33.538Z,-10.40
2018-02-27T22:52:17.101Z,-10.40
2018-02-27T22:57:00.775Z,-10.60
2018-02-27T23:01:45.639Z,-10.70
2018-02-27T23:06:29.179Z,-10.80
2018-02-27T23:11:12.751Z,-10.80
2018-02-27T23:15:56.446Z,-10.90
2018-02-27T23:20:40.337Z,-10.90
2018-02-27T23:25:33.775Z,-10.90
2018-02-27T23:30:18.576Z,-10.90
2018-02-27T23:35:03.667Z,-11.00
2018-02-27T23:39:47.293Z,-11.00
2018-02-27T23:44:30.985Z,-11.00
2018-02-27T23:49:14.509Z,-11.10
2018-02-27T23:53:58.851Z,-11.20
2018-02-27T23:58:42.406Z,-11.20
